Terminal Aerodrome Forecast
Issued by NWS

Home | Current Version | Previous Version | Text Only | Print | Product List | Glossary On
Versions: 1 2 3 4 5 6 7 8 9 10 11 12 13 14 15 16 17 18 19 20 21 22 23 24 25
000
FTUS44 KCRP 221140
TAFALI
TAF
KALI 221140Z 2212/2312 09002KT 3SM BR SCT006 BKN020
      TEMPO 2212/2213 1SM BR OVC010
     FM221500 12010KT P6SM SCT025 SCT045
     FM230700 13003KT 5SM BR FEW020
     FM230900 VRB03KT 1/2SM FG OVC005=

USA.gov is the U.S. government's official web portal to all federal, state and local government web resources and services.